Time;durP1;ratioP1;P1;durP2;ratioP2;P2;SDS_P1;SDS_P2;PMS_P1;PMS_P2;Temp;Humidity;BMP_temperature;BMP_pressure;BME280_temperature;BME280_humidity;BME280_pressure;Samples;Min_cycle;Max_cycle;Signal;HPM_P1;HPM_P2
2022/07/25 00:00:15;;;;;;;12.57;9.60;;;;;;;23.47;62.61;100998.78;4987519;28;20181;-63
2022/07/25 00:02:40;;;;;;;10.90;8.95;;;;;;;23.44;62.05;100991.78;4986475;28;20022;-63
2022/07/25 00:05:06;;;;;;;12.55;9.50;;;;;;;23.40;62.67;100991.91;4989974;28;20030;-63
2022/07/25 00:07:31;;;;;;;10.73;8.98;;;;;;;23.35;62.66;100984.06;4989699;28;20057;-63
2022/07/25 00:09:57;;;;;;;11.15;9.05;;;;;;;23.32;62.34;100978.81;4987899;28;20038;-63
2022/07/25 00:12:23;;;;;;;12.20;9.52;;;;;;;23.30;63.16;100972.66;4989185;28;20394;-63
2022/07/25 00:14:48;;;;;;;11.52;9.05;;;;;;;23.26;63.08;100966.56;4990495;28;20018;-63
2022/07/25 00:17:14;;;;;;;12.15;9.90;;;;;;;23.23;62.62;100968.44;4990714;28;20026;-60
2022/07/25 00:19:39;;;;;;;14.90;9.68;;;;;;;23.20;63.11;100968.50;4988844;28;20100;-60
2022/07/25 00:22:05;;;;;;;11.93;9.57;;;;;;;23.17;63.25;100963.28;4986006;28;20046;-60
2022/07/25 00:24:30;;;;;;;11.80;9.80;;;;;;;23.15;63.37;100958.00;4989520;28;20038;-60
2022/07/25 00:26:55;;;;;;;12.63;10.55;;;;;;;23.13;62.96;100961.63;4988805;28;20027;-60
2022/07/25 00:29:21;;;;;;;11.85;9.82;;;;;;;23.07;63.01;100952.88;4989383;28;20537;-60
2022/07/25 00:31:46;;;;;;;11.23;10.02;;;;;;;23.04;63.00;100952.97;4988658;28;20030;-59
2022/07/25 00:34:12;;;;;;;14.25;10.90;;;;;;;23.02;63.07;100959.22;4986103;28;20072;-60
2022/07/25 00:36:37;;;;;;;12.20;10.02;;;;;;;22.98;62.86;100955.75;4965935;28;20030;-60
2022/07/25 00:39:03;;;;;;;12.70;10.23;;;;;;;22.96;63.38;100957.59;4987512;28;20057;-59
2022/07/25 00:41:28;;;;;;;11.40;9.85;;;;;;;22.94;63.36;100948.78;4986271;28;20037;-60
2022/07/25 00:43:54;;;;;;;11.52;10.05;;;;;;;22.90;63.53;100934.72;4987998;28;20125;-59
2022/07/25 00:46:19;;;;;;;12.82;10.30;;;;;;;22.89;63.02;100932.09;4988940;28;20026;-59
2022/07/25 00:48:44;;;;;;;11.65;10.18;;;;;;;22.84;63.51;100939.31;4989832;28;20084;-60
2022/07/25 00:51:10;;;;;;;10.90;9.48;;;;;;;22.80;64.79;100932.34;4988650;28;20045;-60
2022/07/25 00:53:37;;;;;;;11.80;9.27;;;;;;;22.77;65.36;100932.41;4986470;28;20034;-60
2022/07/25 00:56:04;;;;;;;10.80;9.27;;;;;;;22.69;65.04;100932.59;4988685;28;20035;-60
2022/07/25 00:58:29;;;;;;;10.90;9.68;;;;;;;22.69;64.40;100922.84;4982469;28;20125;-64
2022/07/25 01:00:55;;;;;;;12.88;10.77;;;;;;;22.67;64.36;100923.81;4988210;28;20508;-63
2022/07/25 01:03:20;;;;;;;10.90;9.75;;;;;;;22.62;65.14;100918.59;4988633;28;20088;-63
2022/07/25 01:05:46;;;;;;;12.15;9.93;;;;;;;22.58;64.87;100912.50;4987680;28;20557;-63
2022/07/25 01:08:12;;;;;;;11.68;9.77;;;;;;;22.57;65.66;100921.38;4984689;28;20036;-63
2022/07/25 01:10:37;;;;;;;12.38;10.25;;;;;;;22.54;65.82;100920.59;4988073;28;20112;-64
2022/07/25 01:13:03;;;;;;;12.60;10.23;;;;;;;22.50;65.21;100913.63;4989326;28;20110;-63
2022/07/25 01:15:28;;;;;;;12.85;10.50;;;;;;;22.44;65.36;100897.84;4990272;28;20061;-63
2022/07/25 01:17:54;;;;;;;13.85;10.88;;;;;;;22.40;64.94;100897.94;4989146;28;20022;-63
2022/07/25 01:20:20;;;;;;;12.55;10.77;;;;;;;22.37;65.06;100892.66;4987546;28;20110;-63
2022/07/25 01:22:45;;;;;;;13.95;10.85;;;;;;;22.35;65.11;100893.63;4989024;28;20117;-63
2022/07/25 01:25:12;;;;;;;15.13;10.95;;;;;;;22.31;65.13;100890.13;4989568;28;20081;-63
2022/07/25 01:27:38;;;;;;;12.77;10.95;;;;;;;22.30;64.92;100892.84;4987625;28;20037;-59
2022/07/25 01:30:09;;;;;;;14.02;11.27;;;;;;;22.25;65.00;100882.34;4987021;28;20026;-60
2022/07/25 01:32:35;;;;;;;14.82;11.93;;;;;;;22.17;65.48;100878.97;4971675;28;20038;-59
2022/07/25 01:35:02;;;;;;;13.57;11.18;;;;;;;22.19;65.15;100883.34;4985457;28;20026;-59
2022/07/25 01:37:28;;;;;;;13.80;11.57;;;;;;;22.17;65.77;100878.97;4983595;28;20041;-59
2022/07/25 01:39:53;;;;;;;13.07;10.68;;;;;;;22.15;65.42;100888.78;4981878;28;20054;-59
2022/07/25 01:42:18;;;;;;;14.27;10.85;;;;;;;22.14;65.03;100887.03;4983724;28;20058;-60
2022/07/25 01:44:44;;;;;;;13.02;11.02;;;;;;;22.13;65.80;100882.63;4987416;28;20022;-60
2022/07/25 01:47:09;;;;;;;13.07;11.52;;;;;;;22.10;65.26;100877.38;4986857;28;20114;-60
2022/07/25 01:49:34;;;;;;;13.55;10.77;;;;;;;22.07;65.72;100867.72;4986478;28;20089;-60
2022/07/25 01:52:00;;;;;;;16.90;11.38;;;;;;;22.09;64.99;100867.66;4988827;28;20018;-60
2022/07/25 01:54:25;;;;;;;11.98;10.45;;;;;;;22.01;65.98;100863.41;4984723;28;20473;-59
2022/07/25 01:56:50;;;;;;;14.45;10.70;;;;;;;22.00;65.77;100863.44;4985340;28;20030;-59
2022/07/25 01:59:16;;;;;;;16.00;11.98;;;;;;;21.98;65.58;100849.38;4969907;28;20033;-59
2022/07/25 02:01:42;;;;;;;14.68;11.38;;;;;;;21.94;65.36;100855.66;4989061;28;20583;-60
2022/07/25 02:04:07;;;;;;;14.75;11.85;;;;;;;21.91;65.43;100851.28;4991470;28;20030;-59
2022/07/25 02:06:34;;;;;;;13.75;11.02;;;;;;;21.88;65.33;100848.69;4987008;28;20034;-59
2022/07/25 02:08:59;;;;;;;12.25;10.65;;;;;;;21.86;65.65;100850.53;4990058;28;20038;-59
2022/07/25 02:11:24;;;;;;;12.98;10.32;;;;;;;21.85;65.26;100846.13;4989465;28;20029;-60
2022/07/25 02:13:50;;;;;;;15.27;10.93;;;;;;;21.82;65.34;100836.44;4990935;28;20065;-59
2022/07/25 02:16:15;;;;;;;14.20;10.70;;;;;;;21.83;65.01;100845.31;4990917;28;20053;-59
2022/07/25 02:18:41;;;;;;;14.27;11.30;;;;;;;21.81;65.57;100841.78;4989786;28;20022;-59
2022/07/25 02:21:08;;;;;;;12.75;10.45;;;;;;;21.79;65.12;100836.53;4989188;28;20030;-60
2022/07/25 02:23:34;;;;;;;13.50;10.50;;;;;;;21.78;64.84;100834.78;4988034;28;20316;-59
2022/07/25 02:25:59;;;;;;;13.20;10.18;;;;;;;21.77;64.74;100835.69;4988918;28;20478;-60
2022/07/25 02:28:24;;;;;;;16.52;9.77;;;;;;;21.75;64.55;100834.84;4990886;28;20628;-63
2022/07/25 02:30:50;;;;;;;11.27;9.77;;;;;;;21.73;65.18;100846.41;4990786;28;20041;-63
2022/07/25 02:33:15;;;;;;;12.63;9.45;;;;;;;21.72;64.96;100834.91;4990591;28;20068;-64
2022/07/25 02:35:40;;;;;;;11.35;9.57;;;;;;;21.71;64.78;100834.06;4988498;28;20030;-64
2022/07/25 02:38:06;;;;;;;12.55;9.88;;;;;;;21.67;64.77;100821.78;4989004;28;20481;-64
2022/07/25 02:40:32;;;;;;;11.88;9.18;;;;;;;21.69;64.61;100821.72;4952808;28;1081275;-63
2022/07/25 02:42:57;;;;;;;12.70;9.57;;;;;;;21.66;64.44;100820.03;4990056;28;20115;-63
2022/07/25 02:45:22;;;;;;;11.27;9.15;;;;;;;21.63;64.94;100808.63;4988799;28;20032;-63
2022/07/25 02:47:48;;;;;;;11.13;9.40;;;;;;;21.59;64.69;100815.75;4992863;28;20031;-63
2022/07/25 02:50:13;;;;;;;11.23;9.27;;;;;;;21.59;65.41;100813.09;4989452;28;20425;-63
2022/07/25 02:52:38;;;;;;;11.88;9.70;;;;;;;21.57;65.30;100809.63;4990109;28;20445;-63
2022/07/25 02:55:04;;;;;;;11.50;9.32;;;;;;;21.57;65.21;100814.94;4990679;28;20041;-63
2022/07/25 02:57:30;;;;;;;12.20;9.40;;;;;;;21.56;64.99;100812.31;4989565;28;20038;-63
2022/07/25 02:59:55;;;;;;;11.50;8.93;;;;;;;21.53;64.88;100814.13;4990139;28;20106;-63
2022/07/25 03:02:20;;;;;;;10.20;8.55;;;;;;;21.52;65.64;100809.75;4991011;28;20516;-63
2022/07/25 03:04:45;;;;;;;11.35;9.82;;;;;;;21.51;64.86;100804.47;4986656;28;20030;-63
2022/07/25 03:07:11;;;;;;;11.02;8.88;;;;;;;21.48;65.47;100807.16;4988577;28;20158;-63
2022/07/25 03:09:36;;;;;;;11.68;8.77;;;;;;;21.47;64.91;100808.06;4983544;28;20382;-63
2022/07/25 03:12:01;;;;;;;11.27;8.75;;;;;;;21.47;64.97;100797.47;4988726;28;20030;-63
2022/07/25 03:14:27;;;;;;;11.40;8.57;;;;;;;21.47;64.76;100786.84;4992605;28;20058;-63
2022/07/25 03:16:52;;;;;;;12.88;9.13;;;;;;;21.48;64.85;100780.66;4991947;28;20476;-63
2022/07/25 03:19:17;;;;;;;11.40;8.82;;;;;;;21.46;64.94;100780.66;4986596;28;21127;-63
2022/07/25 03:21:44;;;;;;;12.20;9.23;;;;;;;21.46;65.03;100782.44;4991112;28;20030;-63
2022/07/25 03:24:09;;;;;;;12.23;8.85;;;;;;;21.42;65.33;100771.06;4988000;28;20034;-63
2022/07/25 03:26:34;;;;;;;10.98;8.73;;;;;;;21.41;65.40;100781.69;4982563;28;20037;-63
2022/07/25 03:29:00;;;;;;;10.52;8.38;;;;;;;21.40;64.96;100775.50;4991105;28;20038;-63
2022/07/25 03:31:25;;;;;;;10.23;7.78;;;;;;;21.43;64.13;100777.22;4991754;28;20397;-63
2022/07/25 03:33:50;;;;;;;10.60;8.48;;;;;;;21.42;64.75;100783.44;4991086;28;20089;-63
2022/07/25 03:36:15;;;;;;;11.73;8.48;;;;;;;21.41;65.05;100777.25;4991165;28;20358;-63
2022/07/25 03:38:41;;;;;;;11.80;8.73;;;;;;;21.42;64.09;100776.38;4987262;28;20059;-63
2022/07/25 03:41:06;;;;;;;10.43;8.55;;;;;;;21.40;65.15;100779.94;4987609;28;20042;-63
2022/07/25 03:43:31;;;;;;;9.68;8.15;;;;;;;21.40;65.09;100780.81;4984708;28;20125;-63
2022/07/25 03:45:57;;;;;;;9.93;8.50;;;;;;;21.42;64.73;100776.38;4989641;28;20402;-63
2022/07/25 03:48:22;;;;;;;11.35;8.65;;;;;;;21.42;64.88;100778.13;4989474;28;20038;-63
2022/07/25 03:50:47;;;;;;;10.35;8.32;;;;;;;21.46;64.87;100777.16;4970644;28;20045;-63
2022/07/25 03:53:13;;;;;;;10.40;8.50;;;;;;;21.45;64.49;100778.94;4990744;28;20102;-63
2022/07/25 03:55:38;;;;;;;11.07;8.50;;;;;;;21.44;64.34;100776.31;4989947;28;20027;-63
2022/07/25 03:58:04;;;;;;;11.30;8.80;;;;;;;21.45;64.22;100776.28;4987753;28;20044;-63
2022/07/25 04:00:30;;;;;;;11.73;8.63;;;;;;;21.44;64.93;100771.03;4990484;28;20026;-63
2022/07/25 04:02:55;;;;;;;10.80;8.65;;;;;;;21.45;64.00;100760.38;4988865;28;20034;-63
2022/07/25 04:05:20;;;;;;;12.23;8.20;;;;;;;21.46;64.88;100763.91;4988742;28;20023;-63
2022/07/25 04:07:45;;;;;;;11.02;8.70;;;;;;;21.46;64.94;100759.47;4984012;28;20037;-63
2022/07/25 04:10:11;;;;;;;32.60;14.40;;;;;;;21.46;64.49;100759.47;4988506;28;20021;-63
2022/07/25 04:12:36;;;;;;;14.18;9.15;;;;;;;21.44;65.39;100753.34;4973964;28;20030;-63
2022/07/25 04:15:02;;;;;;;11.18;8.25;;;;;;;21.46;65.38;100755.94;4989289;28;20022;-63
2022/07/25 04:17:27;;;;;;;12.27;8.75;;;;;;;21.45;65.57;100756.84;4990122;28;20533;-63
2022/07/25 04:19:53;;;;;;;12.27;8.85;;;;;;;21.42;65.16;100757.81;4986141;28;20045;-63
2022/07/25 04:22:18;;;;;;;11.48;8.85;;;;;;;21.42;65.24;100762.22;4989954;28;20037;-63
2022/07/25 04:24:43;;;;;;;10.32;8.48;;;;;;;21.44;65.11;100755.13;4989578;28;20051;-64
2022/07/25 04:27:08;;;;;;;12.32;8.75;;;;;;;21.43;65.85;100756.03;4988964;28;20022;-63
2022/07/25 04:29:34;;;;;;;13.13;8.90;;;;;;;21.43;64.28;100759.53;4983989;28;20425;-63
2022/07/25 04:31:59;;;;;;;10.57;8.48;;;;;;;21.44;64.63;100757.78;4982304;28;20105;-63
2022/07/25 04:34:25;;;;;;;14.18;8.52;;;;;;;21.43;62.93;100751.56;4991569;28;20026;-63
2022/07/25 04:36:50;;;;;;;11.27;8.50;;;;;;;21.42;62.99;100747.22;4990180;28;20121;-63
2022/07/25 04:39:15;;;;;;;16.00;8.73;;;;;;;21.42;63.39;100755.16;4990743;28;20114;-63
2022/07/25 04:41:41;;;;;;;12.82;8.73;;;;;;;21.43;62.66;100756.88;4985268;28;20117;-63
2022/07/25 04:44:07;;;;;;;10.38;8.27;;;;;;;21.41;62.40;100760.50;4990783;28;20034;-63
2022/07/25 04:46:33;;;;;;;11.05;8.77;;;;;;;21.44;62.22;100766.59;4988254;28;20792;-63
2022/07/25 04:48:58;;;;;;;11.60;8.77;;;;;;;21.46;61.93;100748.00;4990476;28;20019;-63
2022/07/25 04:51:23;;;;;;;11.15;8.43;;;;;;;21.47;61.91;100755.03;4986021;28;20046;-65
2022/07/25 04:53:49;;;;;;;14.00;8.65;;;;;;;21.48;62.23;100747.06;4980751;28;20034;-64
2022/07/25 04:56:14;;;;;;;11.57;8.38;;;;;;;21.48;62.60;100747.06;4983255;28;20695;-63
2022/07/25 04:58:40;;;;;;;10.77;8.32;;;;;;;21.49;62.39;100747.91;4985033;28;20051;-63
2022/07/25 05:01:06;;;;;;;10.63;8.48;;;;;;;21.50;62.46;100752.31;4989907;28;20505;-63
2022/07/25 05:03:31;;;;;;;11.55;8.57;;;;;;;21.51;62.23;100751.44;4973722;28;20146;-63
2022/07/25 05:05:56;;;;;;;11.85;8.15;;;;;;;21.51;62.40;100749.66;4990874;28;20051;-63
2022/07/25 05:08:22;;;;;;;11.68;8.32;;;;;;;21.51;62.50;100744.38;4988393;28;20056;-63
2022/07/25 05:10:47;;;;;;;9.63;8.18;;;;;;;21.53;62.08;100749.63;4983995;28;20393;-63
2022/07/25 05:13:12;;;;;;;11.30;8.43;;;;;;;21.53;62.64;100749.63;4982583;28;20018;-64
2022/07/25 05:15:38;;;;;;;13.40;8.68;;;;;;;21.52;62.66;100742.56;4982622;28;20096;-63
2022/07/25 05:18:03;;;;;;;10.73;8.38;;;;;;;21.54;62.41;100746.06;4979097;28;20438;-63
2022/07/25 05:20:29;;;;;;;14.82;8.75;;;;;;;21.54;62.21;100752.25;4981784;28;20477;-63
2022/07/25 05:22:54;;;;;;;12.35;8.35;;;;;;;21.56;62.51;100756.66;4981574;28;20552;-63
2022/07/25 05:25:19;;;;;;;13.05;8.45;;;;;;;21.59;61.65;100751.25;4980357;28;21977;-63
2022/07/25 05:27:45;;;;;;;13.23;8.35;;;;;;;21.58;61.86;100745.09;4986815;28;20022;-63
2022/07/25 05:30:12;;;;;;;10.52;8.40;;;;;;;21.61;61.88;100745.03;4983245;28;20477;-64
2022/07/25 05:32:38;;;;;;;12.05;9.40;;;;;;;21.62;62.51;100749.41;4990702;28;20084;-64
2022/07/25 05:35:06;;;;;;;12.50;9.05;;;;;;;21.63;62.39;100751.16;4989001;28;20026;-63
2022/07/25 05:37:32;;;;;;;12.80;8.73;;;;;;;21.67;62.66;100752.81;4988507;28;20133;-63
2022/07/25 05:39:57;;;;;;;11.98;8.95;;;;;;;21.68;62.64;100751.94;4989890;28;20177;-63
2022/07/25 05:42:23;;;;;;;12.25;8.75;;;;;;;21.69;62.93;100761.59;4988991;28;20485;-63
2022/07/25 05:44:48;;;;;;;11.35;9.05;;;;;;;21.71;63.04;100765.09;4988895;28;20393;-63
2022/07/25 05:47:13;;;;;;;11.90;8.90;;;;;;;21.73;62.62;100761.56;4990649;28;20029;-63
2022/07/25 05:49:39;;;;;;;13.18;9.02;;;;;;;21.75;62.77;100760.59;4988705;28;20022;-64
2022/07/25 05:52:05;;;;;;;13.25;9.30;;;;;;;21.76;63.44;100756.16;4990519;28;20156;-63
2022/07/25 05:54:30;;;;;;;15.90;9.82;;;;;;;21.75;62.67;100754.41;4989829;28;20069;-64
2022/07/25 05:56:55;;;;;;;12.77;9.55;;;;;;;21.75;63.01;100751.78;4990554;28;20030;-63
2022/07/25 05:59:21;;;;;;;13.65;9.32;;;;;;;21.75;63.39;100762.38;4987466;28;20033;-63
2022/07/25 06:01:46;;;;;;;14.52;9.48;;;;;;;21.77;62.80;100766.75;4990437;28;20046;-63
2022/07/25 06:04:11;;;;;;;14.95;9.32;;;;;;;21.78;63.49;100778.22;4989489;28;20027;-63
2022/07/25 06:06:37;;;;;;;12.75;9.07;;;;;;;21.78;63.26;100778.22;4988493;28;20026;-64
2022/07/25 06:09:02;;;;;;;15.02;9.82;;;;;;;21.79;63.46;100783.47;4990402;28;20045;-63
2022/07/25 06:11:29;;;;;;;15.38;10.10;;;;;;;21.79;63.56;100785.28;4989236;28;20030;-63
2022/07/25 06:13:54;;;;;;;12.77;9.95;;;;;;;21.77;63.46;100787.97;4988657;28;20418;-64
2022/07/25 06:16:20;;;;;;;12.70;9.82;;;;;;;21.77;63.24;100781.75;4989175;28;20033;-63
2022/07/25 06:18:45;;;;;;;15.15;10.90;;;;;;;21.71;63.78;100780.16;4989463;28;20117;-64
2022/07/25 06:21:10;;;;;;;14.27;10.23;;;;;;;21.67;63.54;100779.34;4990222;28;20131;-64
2022/07/25 06:23:36;;;;;;;13.75;10.48;;;;;;;21.65;64.21;100783.81;4989597;28;20599;-64
2022/07/25 06:26:01;;;;;;;14.77;10.35;;;;;;;21.64;63.89;100784.72;4990177;28;20482;-64
2022/07/25 06:28:26;;;;;;;14.25;9.98;;;;;;;21.62;64.02;100785.66;4989252;28;20520;-64
2022/07/25 06:30:52;;;;;;;16.10;11.38;;;;;;;21.62;64.07;100783.88;4990131;28;20041;-63
2022/07/25 06:33:17;;;;;;;14.45;10.52;;;;;;;21.63;64.44;100788.28;4989447;28;20058;-64
2022/07/25 06:35:42;;;;;;;14.15;10.18;;;;;;;21.63;64.39;100788.28;4989072;28;20049;-64
2022/07/25 06:38:08;;;;;;;13.23;10.18;;;;;;;21.62;64.86;100793.63;4988634;28;20037;-64
2022/07/25 06:40:33;;;;;;;12.98;9.57;;;;;;;21.65;64.70;100785.59;4988141;28;20530;-64
2022/07/25 06:42:58;;;;;;;13.00;9.65;;;;;;;21.66;64.54;100782.88;4989174;28;20045;-64
2022/07/25 06:45:24;;;;;;;13.25;8.98;;;;;;;21.65;64.69;100789.13;4991279;28;20034;-64
2022/07/25 06:47:49;;;;;;;13.82;9.55;;;;;;;21.68;64.70;100789.06;4993803;28;20500;-64
2022/07/25 06:50:17;;;;;;;12.30;9.02;;;;;;;21.66;64.90;100790.84;4992657;28;20735;-64
2022/07/25 06:52:44;;;;;;;15.55;9.10;;;;;;;21.69;64.15;100804.03;4992848;28;20105;-64
2022/07/25 06:55:12;;;;;;;15.07;8.23;;;;;;;21.69;63.92;100790.78;4993494;28;20021;-64
2022/07/25 06:57:38;;;;;;;10.02;7.82;;;;;;;21.73;64.52;100786.28;4992807;28;20401;-64
2022/07/25 07:00:08;;;;;;;12.02;8.25;;;;;;;21.76;64.69;100782.69;4992732;28;20497;-64
2022/07/25 07:02:34;;;;;;;11.63;8.30;;;;;;;21.77;64.22;100792.38;4992302;28;20037;-64
2022/07/25 07:04:59;;;;;;;12.77;8.02;;;;;;;21.77;64.11;100790.63;4992137;28;20037;-64
2022/07/25 07:07:25;;;;;;;10.63;7.50;;;;;;;21.79;64.40;100783.47;4993141;28;20052;-60
2022/07/25 07:09:50;;;;;;;12.63;7.93;;;;;;;21.77;64.42;100782.66;4992323;28;20421;-60
2022/07/25 07:12:15;;;;;;;10.95;7.43;;;;;;;21.79;64.03;100790.56;4992548;28;20038;-60
2022/07/25 07:14:43;;;;;;;11.32;7.15;;;;;;;21.82;64.12;100787.84;4990777;28;20030;-60
2022/07/25 07:17:08;;;;;;;11.00;7.25;;;;;;;21.78;64.77;100787.03;4988231;28;20034;-60
2022/07/25 07:19:33;;;;;;;11.45;7.30;;;;;;;21.81;65.18;100796.69;4992125;28;20374;-60
2022/07/25 07:21:59;;;;;;;9.32;7.07;;;;;;;21.81;65.28;100791.41;4990841;28;20034;-60
2022/07/25 07:24:24;;;;;;;11.50;7.60;;;;;;;21.81;66.08;100788.75;4993049;28;20029;-59
2022/07/25 07:26:49;;;;;;;11.98;7.53;;;;;;;21.84;65.70;100780.72;4992041;28;20030;-60
2022/07/25 07:29:15;;;;;;;9.90;6.90;;;;;;;21.85;65.62;100788.63;4992924;28;20109;-59
2022/07/25 07:31:40;;;;;;;10.77;6.88;;;;;;;21.86;66.16;100787.72;4991819;28;20483;-59
2022/07/25 07:34:06;;;;;;;10.52;6.65;;;;;;;21.87;65.55;100792.13;4992862;28;20030;-59
2022/07/25 07:36:31;;;;;;;10.27;6.40;;;;;;;21.89;65.85;100792.09;4991423;28;20032;-63
2022/07/25 07:38:57;;;;;;;9.75;6.03;;;;;;;21.93;66.25;100790.22;4992806;28;20417;-64
2022/07/25 07:41:22;;;;;;;10.52;6.20;;;;;;;21.94;66.60;100797.28;4991650;28;20398;-64
2022/07/25 07:43:47;;;;;;;8.68;5.22;;;;;;;21.95;66.28;100791.94;4992654;28;20026;-64
2022/07/25 07:46:13;;;;;;;8.20;5.00;;;;;;;21.96;66.67;100791.03;4990929;28;20397;-64
2022/07/25 07:48:38;;;;;;;10.32;5.40;;;;;;;21.97;67.37;100802.50;4989619;28;20543;-64
2022/07/25 07:51:04;;;;;;;10.30;5.18;;;;;;;21.98;67.02;100799.81;4991458;28;20026;-64
2022/07/25 07:56:15;;;;;;;8.48;4.10;;;;;;;22.12;67.57;100798.63;4991057;28;20044;-64
2022/07/25 07:58:41;;;;;;;6.55;3.78;;;;;;;22.17;67.26;100804.66;4991497;28;20508;-64
2022/07/25 08:01:06;;;;;;;8.10;3.50;;;;;;;22.24;68.06;100801.81;4991478;28;20044;-64
2022/07/25 08:03:31;;;;;;;7.65;2.90;;;;;;;22.29;67.29;100803.47;4987565;28;20053;-64
2022/07/25 08:05:57;;;;;;;7.13;3.10;;;;;;;22.33;67.14;100802.53;4982594;28;20501;-64
2022/07/25 08:08:23;;;;;;;5.80;3.00;;;;;;;22.36;67.53;100790.06;4991345;28;20022;-64
2022/07/25 08:10:49;;;;;;;6.97;2.80;;;;;;;22.42;68.09;100801.41;4989460;28;20513;-64
2022/07/25 08:13:18;;;;;;;11.52;3.70;;;;;;;22.48;67.52;100809.22;4990989;28;20477;-64
2022/07/25 08:15:46;;;;;;;8.23;3.45;;;;;;;22.55;68.34;100806.38;4991088;28;20034;-64
2022/07/25 08:18:12;;;;;;;9.30;3.13;;;;;;;22.63;69.06;100798.19;4990833;28;20125;-64
2022/07/25 08:20:38;;;;;;;6.65;2.90;;;;;;;22.70;68.82;100797.09;4991159;28;20384;-64
2022/07/25 08:23:03;;;;;;;6.90;2.60;;;;;;;22.78;67.90;100809.31;4989391;28;20379;-64
2022/07/25 08:25:29;;;;;;;6.47;2.70;;;;;;;22.80;67.52;100796.88;4988077;28;20053;-64
2022/07/25 08:27:55;;;;;;;5.78;2.80;;;;;;;22.84;67.92;100803.81;4987665;28;20034;-64
2022/07/25 08:30:20;;;;;;;7.88;2.80;;;;;;;22.88;68.72;100803.69;4989959;28;20755;-64
2022/07/25 08:32:49;;;;;;;6.10;2.67;;;;;;;22.92;69.02;100809.78;4990915;28;20064;-64
2022/07/25 08:35:16;;;;;;;6.35;2.60;;;;;;;22.90;67.31;100807.19;4973205;28;20065;-64
2022/07/25 08:37:42;;;;;;;6.25;2.80;;;;;;;22.92;67.36;100813.31;4990245;28;20037;-64
2022/07/25 08:40:08;;;;;;;7.53;2.55;;;;;;;22.96;67.07;100816.75;4988887;28;20042;-64
2022/07/25 08:42:34;;;;;;;8.55;2.53;;;;;;;23.02;67.59;100813.91;4990253;28;20038;-64
2022/07/25 08:45:03;;;;;;;6.72;2.35;;;;;;;23.11;67.40;100815.47;4991464;28;20018;-64
2022/07/25 08:47:29;;;;;;;5.90;2.17;;;;;;;23.22;67.64;100815.16;4990628;28;20053;-64
2022/07/25 08:49:55;;;;;;;4.30;2.10;;;;;;;23.29;66.64;100814.06;4989457;28;20026;-64
2022/07/25 08:52:21;;;;;;;6.75;2.38;;;;;;;23.39;67.36;100815.53;4990636;28;20067;-64
2022/07/25 08:54:48;;;;;;;7.55;2.40;;;;;;;23.48;67.76;100813.50;4972796;28;20037;-64
2022/07/25 08:57:14;;;;;;;5.85;2.30;;;;;;;23.57;67.83;100807.91;4991273;28;20485;-64
2022/07/25 08:59:39;;;;;;;5.28;2.17;;;;;;;23.61;64.98;100809.56;4990221;28;20030;-65
2022/07/25 09:02:07;;;;;;;7.07;2.45;;;;;;;23.65;65.68;100824.50;4989997;28;20026;-64
2022/07/25 09:04:34;;;;;;;7.28;2.30;;;;;;;23.68;66.08;100816.44;4990027;28;20080;-64
2022/07/25 09:07:00;;;;;;;6.75;2.10;;;;;;;23.73;66.22;100825.13;4989615;28;20022;-64
2022/07/25 09:09:34;;;;;;;5.97;2.30;;;;;;;23.78;65.73;100828.50;4990195;28;20025;-64
2022/07/25 09:12:00;;;;;;;5.88;2.30;;;;;;;23.82;64.44;100817.78;4989288;28;20057;-64
2022/07/25 09:14:28;;;;;;;6.45;2.35;;;;;;;23.87;65.19;100818.50;4989811;28;20335;-64
2022/07/25 09:16:54;;;;;;;5.95;2.90;;;;;;;23.90;64.04;100819.28;4991395;28;20030;-64
2022/07/25 09:19:22;;;;;;;7.85;2.80;;;;;;;23.96;64.85;100826.22;4987053;28;20147;-64
2022/07/25 09:22:03;;;;;;;6.03;2.85;;;;;;;24.01;64.91;100831.38;4980953;28;20037;-64
2022/07/25 09:24:29;;;;;;;5.40;2.47;;;;;;;24.03;65.34;100830.41;4988890;28;20026;-64
2022/07/25 09:26:58;;;;;;;7.28;2.92;;;;;;;24.07;65.71;100829.41;4989641;28;20371;-64
2022/07/25 09:29:25;;;;;;;;;;;;;;;24.16;65.04;100828.22;4990270;28;20030;-64
2022/07/25 09:31:52;;;;;;;6.90;3.10;;;;;;;24.16;65.56;100832.66;4990213;28;19917;-65
2022/07/25 09:34:37;;;;;;;7.88;3.00;;;;;;;24.18;65.27;100831.69;4990617;28;20464;-64
2022/07/25 09:37:05;;;;;;;6.97;3.30;;;;;;;24.23;65.10;100845.72;4988651;28;20015;-61
2022/07/25 09:39:44;;;;;;;6.13;2.75;;;;;;;24.28;63.88;100842.91;4988920;28;20054;-60
2022/07/25 09:42:28;;;;;;;7.43;3.10;;;;;;;24.27;62.25;100855.38;4990432;28;20022;-60
2022/07/25 09:45:11;;;;;;;6.63;2.97;;;;;;;24.28;62.90;100850.91;4986355;28;20513;-60
2022/07/25 09:47:49;;;;;;;5.60;3.17;;;;;;;24.35;63.56;100859.56;4990285;28;20030;-60
2022/07/25 09:50:15;;;;;;;10.75;4.53;;;;;;;24.43;62.51;100858.38;4987699;28;20113;-61
2022/07/25 09:52:40;;;;;;;7.63;3.58;;;;;;;24.51;62.68;100871.44;4988832;28;20578;-60
2022/07/25 09:55:08;;;;;;;9.63;3.85;;;;;;;24.58;60.24;100856.13;4989628;28;20474;-60
2022/07/25 09:57:34;;;;;;;6.05;3.75;;;;;;;24.67;60.08;100862.94;4990363;28;20068;-60
2022/07/25 10:00:00;;;;;;;9.27;3.63;;;;;;;24.72;60.15;100864.50;4989460;28;20439;-60
2022/07/25 10:02:39;;;;;;;6.45;3.70;;;;;;;24.77;61.29;100867.88;4989792;28;20089;-60
2022/07/25 10:05:10;;;;;;;7.90;3.75;;;;;;;24.81;60.45;100864.19;4987778;28;20053;-60
2022/07/25 10:07:41;;;;;;;7.07;4.00;;;;;;;24.86;60.48;100865.84;4987568;28;20034;-65
2022/07/25 10:10:06;;;;;;;8.10;3.90;;;;;;;24.91;60.10;100863.84;4985284;28;20508;-65
2022/07/25 10:12:32;;;;;;;6.32;3.70;;;;;;;24.98;60.05;100870.69;4980844;28;20018;-65
2022/07/25 10:15:09;;;;;;;7.70;4.00;;;;;;;25.01;58.96;100867.91;4982695;28;20036;-65
2022/07/25 10:17:36;;;;;;;8.88;4.22;;;;;;;25.05;58.16;100872.22;4983459;28;20110;-66
2022/07/25 10:20:05;;;;;;;6.47;3.80;;;;;;;25.06;58.17;100873.13;4985896;28;20026;-66
2022/07/25 10:22:43;;;;;;;6.43;3.60;;;;;;;25.07;58.27;100870.38;4985271;28;20710;-65
2022/07/25 10:25:17;;;;;;;8.57;3.73;;;;;;;25.06;57.69;100871.31;4989103;28;20022;-65
2022/07/25 10:27:51;;;;;;;8.25;3.85;;;;;;;25.14;58.24;100860.34;4986593;28;20035;-64
2022/07/25 10:30:26;;;;;;;5.72;3.25;;;;;;;25.17;56.89;100866.44;4990897;28;20092;-64
2022/07/25 10:32:59;;;;;;;6.05;3.33;;;;;;;25.14;57.10;100866.56;4993990;28;20022;-64
2022/07/25 10:35:26;;;;;;;5.90;3.85;;;;;;;25.21;57.13;100874.34;4992879;28;20169;-64
2022/07/25 10:37:54;;;;;;;5.18;3.10;;;;;;;25.16;55.51;100870.03;4993340;28;20521;-64
2022/07/25 10:40:25;;;;;;;5.45;3.13;;;;;;;25.08;55.61;100869.44;4993571;28;20096;-64
2022/07/25 10:42:55;;;;;;;6.55;3.58;;;;;;;25.09;56.16;100884.53;4992828;28;20042;-64
2022/07/25 10:45:26;;;;;;;7.13;3.67;;;;;;;25.13;56.54;100878.16;4991911;28;20617;-64
2022/07/25 10:47:54;;;;;;;5.70;3.30;;;;;;;25.20;56.77;100885.91;4993829;28;20026;-64
2022/07/25 10:50:22;;;;;;;8.50;3.67;;;;;;;25.18;54.14;100881.50;4980538;28;20026;-65
2022/07/25 10:52:57;;;;;;;6.22;3.72;;;;;;;25.21;54.99;100885.88;4992163;28;20026;-65
2022/07/25 10:55:23;;;;;;;6.32;3.20;;;;;;;25.21;54.77;100880.53;4992712;28;20030;-65
2022/07/25 10:58:03;;;;;;;6.20;3.58;;;;;;;25.24;54.75;100895.56;4992445;28;20026;-64
2022/07/25 11:00:29;;;;;;;6.35;3.90;;;;;;;25.26;53.76;100893.69;4992026;28;20037;-64
2022/07/25 11:02:56;;;;;;;6.35;3.67;;;;;;;25.26;53.91;100896.34;4993196;28;20034;-65
2022/07/25 11:05:21;;;;;;;6.28;3.70;;;;;;;25.30;55.60;100897.97;4992375;28;20022;-64
2022/07/25 11:07:51;;;;;;;7.47;4.15;;;;;;;25.32;54.75;100905.03;4990629;28;20433;-65
2022/07/25 11:10:24;;;;;;;6.57;3.90;;;;;;;25.29;54.48;100897.13;4985860;28;20031;-65
2022/07/25 11:12:50;;;;;;;6.93;4.13;;;;;;;25.27;54.94;100895.44;4988275;28;20227;-65
2022/07/25 11:15:15;;;;;;;6.63;4.30;;;;;;;25.30;55.85;100898.88;4989474;28;20557;-65
2022/07/25 11:17:49;;;;;;;9.25;5.00;;;;;;;25.32;55.90;100909.53;4983159;28;20076;-65